Hartsel, CO

4:16 PM MDT on August 29, 2014 (GMT -0600)
Antero Junction | Change Station
CLOSE
Current Station
Personal Weather Station
Location: Hartsel, CO
Elevation: 9420 ft
Nearby Weather Stations

Elev 9420 ft 38.89 °N, 105.90 °W | Updated 13 minutes ago

Overcast
Overcast
62.4 °F
Feels Like 62.4 °F
N
1.0
Wind Variable Wind from South
Gusts 7.0 mph

Today
High -- | Low -- °F
--% Chance of Precip.
Yesterday
High -- | Low -- °F
Precip. -- in
6:29 AM 7:37 PM
Waxing Crescent, 17% visible
Pressure 30.23 in
Visibility 10.0 miles
Clouds Scattered Clouds 10000 ft
Mostly Cloudy 12000 ft
Dew Point 31 °F
Humidity 31%
Rainfall 0.00 in
Snow Depth 1 in
UV 3 out of 12
Pollen 10.00 out of 12
Air Quality Not available.
Flu Activity Not available.
METAR KAEJ 292155Z AUTO 18006KT 10SM SCT100 BKN120 23/M01 A3023 RMK AO2 T02251015

More Conditions Fewer Conditions

Pressure 30.23 in
Visibility 10.0 miles
Clouds Scattered Clouds 10000 ft
Mostly Cloudy 12000 ft
Dew Point 31 °F
Humidity 31%
Rainfall 0.00 in
Snow Depth 1 in
UV 3 out of 12
Pollen 10.00 out of 12
Air Quality Not available.
Flu Activity Not available.
METAR KAEJ 292155Z AUTO 18006KT 10SM SCT100 BKN120 23/M01 A3023 RMK AO2 T02251015

More Conditions Fewer Conditions

10-Day Weather Forecast

Almanac

Astronomy

Aug. 29, 2014 Rise Set
Actual Time 6:29 AM MDT 7:37 PM MDT
Civil Twilight 6:02 AM MDT 8:05 PM MDT
Nautical Twilight 5:29 AM MDT 8:38 PM MDT
Astronomical Twilight 4:55 AM MDT 9:12 PM MDT
Moon 10:19 AM MDT 9:39 PM MDT
Length of Visible Light 14h 03m
Length of Day
13h 08m
Tomorrow will be 2m 24s shorter.
Waxing Crescent, 17% of the Moon is Illuminated
Today
Waxing Crescent
Sep 2
First Quarter
Sep 8
Full
Sep 15
Last Quarter
Sep 24
New

Today's Extremes

State Highs State Lows

Community

WunderPhotos

Upload Photos

1,748,356 photos uploaded!

Nearby

Snow Depth

Station Depth Elevation
Rough And Tumble 1 in 10360 ft
Brumley 0 in 10600 ft
Independence Pass 188 in 10600 ft
Vail Mountain 87 in 10300 ft
Mccoy Park 11 in 9480 ft

Earthquake Activity

City Distance Mag. Time & Date
No recent earthquake activity has been reported nearby.
Minimum magnitude displayed is 2.5.

Coastal Water Temperatures

Place Temperature
No Stations Reporting

Nearby Weather Stations